createdAt,value
2022-08-25T00:02:00.735Z,101843.00
2022-08-25T00:04:30.523Z,101843.38
2022-08-25T00:07:02.746Z,101848.22
2022-08-25T00:09:30.378Z,101838.59
2022-08-25T00:11:57.532Z,101839.72
2022-08-25T00:14:28.374Z,101834.13
2022-08-25T00:16:56.094Z,101836.56
2022-08-25T00:19:29.991Z,101838.19
2022-08-25T00:21:56.857Z,101834.97
2022-08-25T00:24:24.488Z,101841.00
2022-08-25T00:26:54.997Z,101835.38
2022-08-25T00:29:23.437Z,101825.00
2022-08-25T00:31:50.274Z,101838.59
2022-08-25T00:34:23.890Z,101841.41
2022-08-25T00:36:51.777Z,101835.84
2022-08-25T00:39:21.174Z,101835.03
2022-08-25T00:41:49.493Z,101832.59
2022-08-25T00:44:19.796Z,101836.59
2022-08-25T00:46:52.709Z,101834.97
2022-08-25T00:49:28.972Z,101826.97
2022-08-25T00:52:07.540Z,101833.75
2022-08-25T00:54:45.945Z,101832.13
2022-08-25T00:57:16.678Z,101837.28
2022-08-25T00:59:44.492Z,101838.91
2022-08-25T01:02:13.960Z,101842.91
2022-08-25T01:04:48.811Z,101843.72
2022-08-25T01:07:19.052Z,101844.97
2022-08-25T01:09:49.885Z,101852.56
2022-08-25T01:12:16.992Z,101836.94
2022-08-25T01:14:46.689Z,101837.38
2022-08-25T01:17:15.067Z,101838.59
2022-08-25T01:19:42.794Z,101840.63
2022-08-25T01:22:11.186Z,101835.00
2022-08-25T01:24:59.470Z,101838.59
2022-08-25T01:27:26.406Z,101826.59
2022-08-25T01:29:53.324Z,101832.19
2022-08-25T01:32:20.333Z,101830.25
2022-08-25T01:34:47.254Z,101834.69
2022-08-25T01:37:17.146Z,101825.06
2022-08-25T01:39:44.752Z,101824.28
2022-08-25T01:42:23.776Z,101832.72
2022-08-25T01:44:50.820Z,101821.50
2022-08-25T01:47:17.976Z,101829.13
2022-08-25T01:49:45.509Z,101825.13
2022-08-25T01:52:23.823Z,101823.13
2022-08-25T01:54:50.778Z,101814.34
2022-08-25T01:57:17.936Z,101821.94
2022-08-25T01:59:45.326Z,101816.38
2022-08-25T02:02:12.514Z,101817.59
2022-08-25T02:04:40.683Z,101812.03
2022-08-25T02:07:11.499Z,101812.06
2022-08-25T02:09:39.486Z,101810.06
2022-08-25T02:12:09.207Z,101809.63
2022-08-25T02:14:37.049Z,101807.25
2022-08-25T02:17:05.455Z,101810.06
2022-08-25T02:19:32.856Z,101799.66
2022-08-25T02:22:00.388Z,101806.47
2022-08-25T02:24:27.374Z,101804.09
2022-08-25T02:26:55.192Z,101798.47
2022-08-25T02:29:22.058Z,101792.06
2022-08-25T02:31:49.253Z,101785.66
2022-08-25T02:34:16.419Z,101792.06
2022-08-25T02:36:43.998Z,101794.06
2022-08-25T02:39:12.792Z,101791.25
2022-08-25T02:41:40.504Z,101798.09
2022-08-25T02:44:08.558Z,101795.69
2022-08-25T02:46:36.918Z,101796.13
2022-08-25T02:49:05.654Z,101795.34
2022-08-25T02:51:33.679Z,101798.94
2022-08-25T02:54:02.394Z,101800.97
2022-08-25T02:56:31.118Z,101798.56
2022-08-25T02:58:58.696Z,101798.56
2022-08-25T03:01:28.663Z,101796.97
2022-08-25T03:03:56.831Z,101792.97
2022-08-25T03:06:24.553Z,101796.63
2022-08-25T03:08:52.605Z,101798.19
2022-08-25T03:11:20.253Z,101801.81
2022-08-25T03:13:49.746Z,101797.81
2022-08-25T03:16:16.689Z,101793.81
2022-08-25T03:18:44.992Z,101789.41
2022-08-25T03:21:12.572Z,101780.19
2022-08-25T03:23:41.274Z,101784.22
2022-08-25T03:26:27.080Z,101782.63
2022-08-25T03:28:57.213Z,101779.00
2022-08-25T03:31:26.903Z,101776.63
2022-08-25T03:33:54.309Z,101781.41
2022-08-25T03:36:21.188Z,101769.03
2022-08-25T03:38:48.235Z,101780.63
2022-08-25T03:41:23.985Z,101785.84
2022-08-25T03:43:55.850Z,101769.84
2022-08-25T03:46:25.932Z,101778.25
2022-08-25T03:48:53.736Z,101773.44
2022-08-25T03:51:26.981Z,101766.22
2022-08-25T03:53:54.250Z,101771.44
2022-08-25T03:56:21.146Z,101762.63
2022-08-25T03:58:48.969Z,101767.81
2022-08-25T04:01:16.719Z,101773.41
2022-08-25T04:03:45.469Z,101773.41
2022-08-25T04:06:12.902Z,101757.03
2022-08-25T04:08:40.086Z,101758.59
2022-08-25T04:11:16.147Z,101753.81
2022-08-25T04:13:45.254Z,101755.41
2022-08-25T04:16:14.819Z,101748.63
2022-08-25T04:18:43.726Z,101749.00
2022-08-25T04:21:12.148Z,101743.81
2022-08-25T04:23:41.163Z,101750.22
2022-08-25T04:26:19.442Z,101750.63
2022-08-25T04:28:46.998Z,101751.81
2022-08-25T04:31:16.225Z,101755.84
2022-08-25T04:33:44.068Z,101749.00
2022-08-25T04:36:14.375Z,101750.63
2022-08-25T04:38:43.018Z,101753.00
2022-08-25T04:41:12.073Z,101755.41
2022-08-25T04:43:41.667Z,101739.44
2022-08-25T04:46:24.008Z,101743.44
2022-08-25T04:48:53.087Z,101746.63
2022-08-25T04:51:23.538Z,101745.00
2022-08-25T04:53:51.437Z,101749.81
2022-08-25T04:56:20.563Z,101752.22
2022-08-25T04:58:47.615Z,101751.41
2022-08-25T05:01:17.604Z,101748.19
2022-08-25T05:03:46.464Z,101749.38
2022-08-25T05:06:16.295Z,101748.56
2022-08-25T05:08:45.992Z,101752.56
2022-08-25T05:11:16.629Z,101744.16
2022-08-25T05:13:51.510Z,101743.34
2022-08-25T05:16:20.256Z,101750.13
2022-08-25T05:18:47.572Z,101746.50
2022-08-25T05:21:20.187Z,101749.72
2022-08-25T05:23:48.078Z,101747.69
2022-08-25T05:26:21.141Z,101741.69
2022-08-25T05:28:52.285Z,101743.25
2022-08-25T05:31:20.113Z,101748.47
2022-08-25T05:33:47.187Z,101756.81
2022-08-25T05:36:15.950Z,101747.56
2022-08-25T05:38:42.930Z,101751.16
2022-08-25T05:41:15.773Z,101753.97
2022-08-25T05:43:45.716Z,101753.16
2022-08-25T05:46:13.338Z,101755.91
2022-08-25T05:48:40.596Z,101751.88
2022-08-25T05:51:10.394Z,101755.84
2022-08-25T05:53:39.966Z,101750.56
2022-08-25T05:56:07.031Z,101760.53
2022-08-25T05:58:34.587Z,101757.28
2022-08-25T06:01:20.165Z,101758.06
2022-08-25T06:03:47.896Z,101754.00
2022-08-25T06:06:16.135Z,101763.56
2022-08-25T06:08:44.452Z,101755.94
2022-08-25T06:11:13.593Z,101755.09
2022-08-25T06:13:40.953Z,101753.03
2022-08-25T06:16:08.051Z,101758.63
2022-08-25T06:18:35.058Z,101748.16
2022-08-25T06:21:10.888Z,101750.03
2022-08-25T06:23:38.454Z,101756.78
2022-08-25T06:26:05.693Z,101755.09
2022-08-25T06:28:32.615Z,101752.59
2022-08-25T06:31:01.600Z,101754.91
2022-08-25T06:33:28.810Z,101762.84
2022-08-25T06:35:56.981Z,101753.19
2022-08-25T06:38:24.700Z,101758.28
2022-08-25T06:40:52.459Z,101756.66
2022-08-25T06:43:20.492Z,101755.34
2022-08-25T06:45:49.497Z,101760.41
2022-08-25T06:48:16.637Z,101759.94
2022-08-25T06:50:44.826Z,101769.88
2022-08-25T06:53:11.880Z,101771.38
2022-08-25T06:55:39.392Z,101770.91
2022-08-25T06:58:06.799Z,101776.44
2022-08-25T07:00:38.503Z,101775.88
2022-08-25T07:03:05.466Z,101767.34
2022-08-25T07:05:43.536Z,101776.47
2022-08-25T07:08:11.980Z,101772.41
2022-08-25T07:10:39.678Z,101767.94
2022-08-25T07:13:06.490Z,101777.50
2022-08-25T07:15:39.360Z,101774.13
2022-08-25T07:18:07.661Z,101776.00
2022-08-25T07:20:35.857Z,101777.81
2022-08-25T07:23:03.118Z,101768.81
2022-08-25T07:25:30.037Z,101772.66
2022-08-25T07:27:59.045Z,101769.81
2022-08-25T07:30:26.435Z,101766.94
2022-08-25T07:32:55.117Z,101757.13
2022-08-25T07:35:26.307Z,101759.81
2022-08-25T07:37:59.307Z,101770.19
2022-08-25T07:40:29.912Z,101781.38
2022-08-25T07:43:00.044Z,101775.09
2022-08-25T07:45:32.550Z,101778.13
2022-08-25T07:48:06.385Z,101785.31
2022-08-25T07:50:34.247Z,101793.25
2022-08-25T07:53:01.106Z,101795.41
2022-08-25T07:55:30.605Z,101795.91
2022-08-25T07:57:59.831Z,101794.06
2022-08-25T08:00:29.985Z,101795.84
2022-08-25T08:02:57.699Z,101791.59
2022-08-25T08:05:25.945Z,101794.06
2022-08-25T08:07:54.208Z,101796.31
2022-08-25T08:13:10.412Z,101794.13
2022-08-25T08:15:38.340Z,101784.88
2022-08-25T08:18:07.351Z,101783.09
2022-08-25T08:20:42.291Z,101786.09
2022-08-25T08:23:09.837Z,101778.69
2022-08-25T08:25:36.772Z,101780.44
2022-08-25T08:28:03.800Z,101784.47
2022-08-25T08:30:36.788Z,101783.03
2022-08-25T08:33:10.176Z,101784.50
2022-08-25T08:35:41.271Z,101775.13
2022-08-25T08:38:14.772Z,101777.31
2022-08-25T08:42:09.646Z,101774.09
2022-08-25T08:44:42.121Z,101777.00
2022-08-25T08:47:30.706Z,101776.56
2022-08-25T08:50:21.618Z,101769.44
2022-08-25T08:53:15.024Z,101771.03
2022-08-25T08:55:48.347Z,101767.41
2022-08-25T08:58:26.215Z,101761.22
2022-08-25T09:00:56.504Z,101756.09
2022-08-25T09:03:39.936Z,101761.84
2022-08-25T09:06:13.184Z,101753.22
2022-08-25T09:08:44.986Z,101748.75
2022-08-25T09:11:21.112Z,101742.53
2022-08-25T09:14:13.109Z,101746.44
2022-08-25T09:17:16.579Z,101740.94
2022-08-25T09:20:06.093Z,101729.31
2022-08-25T09:23:07.515Z,101727.91
2022-08-25T09:25:53.427Z,101732.38
2022-08-25T09:29:03.306Z,101736.59
2022-08-25T09:31:36.470Z,101728.25
2022-08-25T09:34:14.394Z,101735.53
2022-08-25T09:36:41.483Z,101730.69
2022-08-25T09:39:09.926Z,101717.94
2022-08-25T09:41:56.516Z,101718.00
2022-08-25T09:44:27.708Z,101706.38
2022-08-25T09:46:57.429Z,101703.38
2022-08-25T09:49:41.043Z,101707.97
2022-08-25T09:52:34.089Z,101706.28
2022-08-25T09:55:09.574Z,101706.13
2022-08-25T09:57:43.681Z,101703.34
2022-08-25T10:00:18.532Z,101702.06
2022-08-25T10:03:09.935Z,101700.81
2022-08-25T10:05:46.111Z,101704.63
2022-08-25T10:08:34.102Z,101709.38
2022-08-25T10:11:05.124Z,101705.56
2022-08-25T10:13:48.807Z,101707.13
2022-08-25T10:16:36.031Z,101700.66
2022-08-25T10:19:23.732Z,101691.66
2022-08-25T10:22:11.247Z,101679.31
2022-08-25T10:24:43.699Z,101679.00
2022-08-25T10:27:30.052Z,101675.19
2022-08-25T10:30:12.819Z,101673.78
2022-08-25T10:32:58.743Z,101680.25
2022-08-25T10:35:34.760Z,101672.81
2022-08-25T10:38:21.821Z,101674.25
2022-08-25T10:41:28.384Z,101671.88
2022-08-25T10:44:45.155Z,101663.16
2022-08-25T10:47:52.879Z,101665.34
2022-08-25T10:51:01.184Z,101662.75
2022-08-25T10:53:37.046Z,101659.56
2022-08-25T10:56:40.227Z,101656.28
2022-08-25T10:59:13.047Z,101652.28
2022-08-25T11:02:04.568Z,101648.81
2022-08-25T11:04:44.149Z,101642.47
2022-08-25T11:07:28.353Z,101630.78
2022-08-25T11:10:03.051Z,101634.22
2022-08-25T11:12:34.625Z,101638.97
2022-08-25T11:15:11.372Z,101636.34
2022-08-25T11:18:20.310Z,101629.00
2022-08-25T11:20:52.504Z,101621.72
2022-08-25T11:23:28.577Z,101618.56
2022-08-25T11:26:04.480Z,101629.19
2022-08-25T11:28:34.893Z,101622.81
2022-08-25T11:31:04.259Z,101611.41
2022-08-25T11:33:33.846Z,101611.72
2022-08-25T11:36:06.943Z,101609.94
2022-08-25T11:38:54.584Z,101614.59
2022-08-25T11:41:29.478Z,101609.59
2022-08-25T11:44:34.771Z,101605.47
2022-08-25T11:47:54.767Z,101609.19
2022-08-25T11:50:35.676Z,101604.16
2022-08-25T11:53:26.674Z,101618.13
2022-08-25T11:56:04.373Z,101611.34
2022-08-25T11:58:41.937Z,101617.06
2022-08-25T12:01:12.749Z,101615.28
2022-08-25T12:03:39.589Z,101600.31
2022-08-25T12:06:32.056Z,101595.41
2022-08-25T12:09:03.069Z,101596.47
2022-08-25T12:11:42.549Z,101597.97
2022-08-25T12:14:28.193Z,101594.41
2022-08-25T12:16:55.744Z,101592.34
2022-08-25T12:19:25.363Z,101591.28
2022-08-25T12:22:14.183Z,101587.34
2022-08-25T12:24:47.756Z,101585.84
2022-08-25T12:27:39.082Z,101582.31
2022-08-25T12:30:21.515Z,101577.50
2022-08-25T12:33:05.547Z,101580.50
2022-08-25T12:35:37.300Z,101574.28
2022-08-25T12:38:16.837Z,101574.59
2022-08-25T12:40:45.455Z,101573.25
2022-08-25T12:43:37.803Z,101566.41
2022-08-25T12:46:27.581Z,101562.91
2022-08-25T12:49:11.585Z,101565.75
2022-08-25T12:51:39.793Z,101564.75
2022-08-25T12:54:19.073Z,101561.31
2022-08-25T12:56:59.315Z,101563.50
2022-08-25T12:59:38.326Z,101557.41
2022-08-25T13:02:39.953Z,101569.41
2022-08-25T13:05:37.156Z,101558.56
2022-08-25T13:08:19.431Z,101560.91
2022-08-25T13:10:56.112Z,101560.69
2022-08-25T13:13:39.057Z,101555.91
2022-08-25T13:16:09.630Z,101550.31
2022-08-25T13:18:39.005Z,101553.03
2022-08-25T13:21:15.940Z,101556.69
2022-08-25T13:23:45.919Z,101548.09
2022-08-25T13:26:26.543Z,101545.22
2022-08-25T13:29:12.705Z,101536.72
2022-08-25T13:32:14.404Z,101540.66
2022-08-25T13:34:44.005Z,101530.22
2022-08-25T13:37:29.674Z,101526.72
2022-08-25T13:40:10.180Z,101525.94
2022-08-25T13:42:44.347Z,101524.44
2022-08-25T13:45:18.898Z,101514.84
2022-08-25T13:47:48.484Z,101519.91
2022-08-25T13:50:35.400Z,101524.00
2022-08-25T13:53:05.861Z,101521.84
2022-08-25T13:55:51.459Z,101523.75
2022-08-25T13:58:24.327Z,101519.66
2022-08-25T14:01:00.694Z,101524.75
2022-08-25T14:03:35.213Z,101521.16
2022-08-25T14:06:07.335Z,101518.56
2022-08-25T14:08:41.543Z,101517.69
2022-08-25T14:11:15.712Z,101516.50
2022-08-25T14:13:45.824Z,101515.78
2022-08-25T14:16:19.496Z,101512.19
2022-08-25T14:18:50.484Z,101504.44
2022-08-25T14:21:27.720Z,101506.69
2022-08-25T14:23:56.414Z,101493.66
2022-08-25T14:26:23.855Z,101501.47
2022-08-25T14:28:53.667Z,101496.03
2022-08-25T14:31:27.819Z,101493.22
2022-08-25T14:33:59.185Z,101493.44
2022-08-25T14:36:29.773Z,101489.06
2022-08-25T14:38:57.942Z,101493.72
2022-08-25T14:41:26.599Z,101495.28
2022-08-25T14:43:53.658Z,101488.78
2022-08-25T14:46:24.761Z,101483.59
2022-08-25T14:48:56.851Z,101486.75
2022-08-25T14:51:25.900Z,101483.03
2022-08-25T14:53:58.164Z,101479.97
2022-08-25T14:56:25.518Z,101480.25
2022-08-25T14:58:56.732Z,101474.22
2022-08-25T15:01:28.707Z,101464.34
2022-08-25T15:04:19.182Z,101475.53
2022-08-25T15:06:46.939Z,101465.88
2022-08-25T15:09:16.646Z,101457.25
2022-08-25T15:11:52.713Z,101459.25
2022-08-25T15:14:28.393Z,101453.38
2022-08-25T15:16:57.610Z,101447.13
2022-08-25T15:19:27.087Z,101443.25
2022-08-25T15:21:58.034Z,101440.44
2022-08-25T15:24:27.271Z,101443.94
2022-08-25T15:26:57.419Z,101441.56
2022-08-25T15:29:27.624Z,101436.28
2022-08-25T15:31:54.790Z,101439.34
2022-08-25T15:34:22.501Z,101435.41
2022-08-25T15:36:49.603Z,101439.34
2022-08-25T15:39:17.961Z,101436.19
2022-08-25T15:41:49.447Z,101427.28
2022-08-25T15:44:16.934Z,101432.66
2022-08-25T15:46:46.951Z,101430.88
2022-08-25T15:49:15.091Z,101429.84
2022-08-25T15:51:47.956Z,101439.75
2022-08-25T15:54:15.778Z,101427.28
2022-08-25T15:56:44.184Z,101430.69
2022-08-25T15:59:13.855Z,101430.94
2022-08-25T16:01:41.995Z,101438.69
2022-08-25T16:04:10.098Z,101436.09
2022-08-25T16:06:38.292Z,101430.59
2022-08-25T16:09:08.135Z,101428.94
2022-08-25T16:11:35.283Z,101422.41
2022-08-25T16:14:05.902Z,101431.06
2022-08-25T16:16:33.598Z,101424.56
2022-08-25T16:19:01.797Z,101423.72
2022-08-25T16:21:33.102Z,101422.38
2022-08-25T16:24:05.465Z,101418.41
2022-08-25T16:26:38.180Z,101418.31
2022-08-25T16:29:16.466Z,101421.88
2022-08-25T16:31:45.120Z,101412.19
2022-08-25T16:34:20.121Z,101409.00
2022-08-25T16:36:47.307Z,101412.31
2022-08-25T16:39:19.588Z,101401.03
2022-08-25T16:41:49.309Z,101400.03
2022-08-25T16:44:19.394Z,101404.06
2022-08-25T16:46:54.024Z,101399.50
2022-08-25T16:49:24.363Z,101403.88
2022-08-25T16:51:57.182Z,101396.25
2022-08-25T16:54:45.160Z,101388.97
2022-08-25T16:57:13.021Z,101388.69
2022-08-25T16:59:40.175Z,101391.59
2022-08-25T17:02:07.372Z,101387.41
2022-08-25T17:04:34.302Z,101378.50
2022-08-25T17:07:01.981Z,101380.59
2022-08-25T17:09:29.741Z,101384.50
2022-08-25T17:11:57.343Z,101380.53
2022-08-25T17:14:25.221Z,101362.47
2022-08-25T17:16:55.371Z,101373.47
2022-08-25T17:19:25.022Z,101371.34
2022-08-25T17:21:53.802Z,101369.88
2022-08-25T17:24:21.109Z,101376.88
2022-08-25T17:26:51.053Z,101377.25
2022-08-25T17:29:18.460Z,101373.44
2022-08-25T17:31:48.532Z,101375.88
2022-08-25T17:34:16.760Z,101374.50
2022-08-25T17:36:47.539Z,101368.53
2022-08-25T17:39:18.199Z,101375.56
2022-08-25T17:41:45.654Z,101373.06
2022-08-25T17:44:14.109Z,101373.09
2022-08-25T17:46:47.624Z,101377.19
2022-08-25T17:49:15.855Z,101368.09
2022-08-25T17:51:42.886Z,101376.66
2022-08-25T17:54:10.059Z,101367.50
2022-08-25T17:56:38.111Z,101363.44
2022-08-25T17:59:06.176Z,101371.63
2022-08-25T18:01:40.482Z,101364.53
2022-08-25T18:04:17.181Z,101363.59
2022-08-25T18:06:46.641Z,101360.88
2022-08-25T18:09:14.755Z,101364.03
2022-08-25T18:11:42.752Z,101368.38
2022-08-25T18:14:11.474Z,101366.94
2022-08-25T18:16:39.381Z,101364.31
2022-08-25T18:19:09.789Z,101362.53
2022-08-25T18:21:36.947Z,101358.22
2022-08-25T18:24:04.986Z,101365.09
2022-08-25T18:26:32.765Z,101357.16
2022-08-25T18:28:59.699Z,101361.63
2022-08-25T18:31:26.794Z,101355.91
2022-08-25T18:33:53.929Z,101353.94
2022-08-25T18:36:21.321Z,101355.56
2022-08-25T18:39:07.845Z,101352.00
2022-08-25T18:41:38.598Z,101359.63
2022-08-25T18:44:07.611Z,101363.59
2022-08-25T18:46:35.420Z,101360.09
2022-08-25T18:49:03.474Z,101356.97
2022-08-25T18:51:32.810Z,101353.38
2022-08-25T18:54:01.446Z,101365.75
2022-08-25T18:56:29.349Z,101361.22
2022-08-25T18:58:57.721Z,101369.09
2022-08-25T19:01:25.287Z,101365.75
2022-08-25T19:03:52.573Z,101369.47
2022-08-25T19:06:20.886Z,101367.31
2022-08-25T19:08:48.641Z,101365.63
2022-08-25T19:11:17.280Z,101366.31
2022-08-25T19:13:49.606Z,101360.88
2022-08-25T19:16:38.383Z,101362.66
2022-08-25T19:19:07.539Z,101364.94
2022-08-25T19:21:35.678Z,101369.44
2022-08-25T19:24:03.455Z,101369.56
2022-08-25T19:26:31.776Z,101367.25
2022-08-25T19:28:59.241Z,101368.75
2022-08-25T19:31:27.797Z,101368.03
2022-08-25T19:34:01.572Z,101369.28
2022-08-25T19:36:30.570Z,101380.09
2022-08-25T19:39:01.613Z,101374.75
2022-08-25T19:41:31.487Z,101378.25
2022-08-25T19:43:59.519Z,101377.38
2022-08-25T19:46:33.040Z,101377.53
2022-08-25T19:49:08.037Z,101385.75
2022-08-25T19:51:44.091Z,101396.13
2022-08-25T19:54:15.655Z,101398.44
2022-08-25T19:56:54.397Z,101395.34
2022-08-25T19:59:25.816Z,101401.59
2022-08-25T20:01:54.119Z,101405.66
2022-08-25T20:04:21.136Z,101411.38
2022-08-25T20:06:52.098Z,101405.81
2022-08-25T20:09:35.982Z,101416.41
2022-08-25T20:12:07.259Z,101419.75
2022-08-25T20:14:35.149Z,101416.59
2022-08-25T20:17:02.808Z,101416.66
2022-08-25T20:19:31.240Z,101420.81
2022-08-25T20:21:59.054Z,101418.09
2022-08-25T20:24:44.653Z,101429.09
2022-08-25T20:27:12.289Z,101431.22
2022-08-25T20:29:39.578Z,101420.88
2022-08-25T20:32:11.934Z,101430.31
2022-08-25T20:34:39.796Z,101433.22
2022-08-25T20:37:07.781Z,101434.50
2022-08-25T20:39:35.045Z,101429.72
2022-08-25T20:42:03.745Z,101438.63
2022-08-25T20:44:33.814Z,101439.50
2022-08-25T20:47:03.382Z,101438.25
2022-08-25T20:49:37.659Z,101441.25
2022-08-25T20:52:05.615Z,101443.81
2022-08-25T20:54:34.018Z,101447.91
2022-08-25T20:57:02.575Z,101442.00
2022-08-25T20:59:29.810Z,101440.47
2022-08-25T21:01:58.418Z,101442.66
2022-08-25T21:04:29.360Z,101438.78
2022-08-25T21:06:58.245Z,101448.09
2022-08-25T21:09:27.385Z,101452.56
2022-08-25T21:11:55.943Z,101450.63
2022-08-25T21:14:25.234Z,101446.66
2022-08-25T21:16:54.119Z,101451.91
2022-08-25T21:19:26.252Z,101450.34
2022-08-25T21:21:59.602Z,101449.09
2022-08-25T21:24:28.516Z,101453.63
2022-08-25T21:26:57.789Z,101461.28
2022-08-25T21:29:28.372Z,101455.78
2022-08-25T21:31:58.810Z,101465.03
2022-08-25T21:34:28.836Z,101462.34
2022-08-25T21:36:58.183Z,101460.38
2022-08-25T21:39:28.237Z,101461.25
2022-08-25T21:41:58.585Z,101470.19
2022-08-25T21:44:27.533Z,101472.16
2022-08-25T21:46:55.055Z,101466.47
2022-08-25T21:49:24.255Z,101468.47
2022-08-25T21:52:00.600Z,101466.47
2022-08-25T21:54:29.329Z,101472.78
2022-08-25T21:56:59.922Z,101456.00
2022-08-25T21:59:36.127Z,101468.84
2022-08-25T22:02:07.818Z,101469.72
2022-08-25T22:04:38.925Z,101475.41
2022-08-25T22:07:07.008Z,101469.41
2022-08-25T22:09:34.127Z,101466.16
2022-08-25T22:12:01.306Z,101473.00
2022-08-25T22:14:28.273Z,101474.25
2022-08-25T22:16:55.732Z,101473.09
2022-08-25T22:19:23.563Z,101468.69
2022-08-25T22:21:52.833Z,101470.69
2022-08-25T22:24:20.882Z,101465.91
2022-08-25T22:26:49.267Z,101471.53
2022-08-25T22:29:24.949Z,101477.13
2022-08-25T22:31:59.484Z,101471.91
2022-08-25T22:34:32.624Z,101478.38
2022-08-25T22:37:04.598Z,101472.34
2022-08-25T22:39:34.229Z,101471.66
2022-08-25T22:42:02.093Z,101468.94
2022-08-25T22:44:29.321Z,101473.75
2022-08-25T22:46:56.265Z,101471.41
2022-08-25T22:49:23.738Z,101481.53
2022-08-25T22:51:51.055Z,101474.44
2022-08-25T22:54:20.607Z,101477.69
2022-08-25T22:56:48.395Z,101478.53
2022-08-25T22:59:15.519Z,101470.91
2022-08-25T23:01:44.429Z,101474.06
2022-08-25T23:04:12.152Z,101475.28
2022-08-25T23:06:39.814Z,101476.13
2022-08-25T23:09:08.341Z,101473.72
2022-08-25T23:11:38.633Z,101477.69
2022-08-25T23:14:10.237Z,101480.84
2022-08-25T23:16:38.971Z,101487.63
2022-08-25T23:19:06.333Z,101477.63
2022-08-25T23:21:53.061Z,101487.63
2022-08-25T23:24:29.398Z,101485.97
2022-08-25T23:27:02.189Z,101486.44
2022-08-25T23:29:31.711Z,101483.16
2022-08-25T23:31:59.150Z,101485.22
2022-08-25T23:34:26.835Z,101485.97
2022-08-25T23:36:56.475Z,101485.56
2022-08-25T23:39:23.304Z,101476.78
2022-08-25T23:41:51.740Z,101485.13
2022-08-25T23:44:21.288Z,101488.38
2022-08-25T23:46:48.710Z,101491.16
2022-08-25T23:49:18.447Z,101488.78
2022-08-25T23:51:51.726Z,101497.31
2022-08-25T23:54:21.192Z,101489.28
2022-08-25T23:56:52.303Z,101489.72
2022-08-25T23:59:24.480Z,101488.13
